Time;durP1;ratioP1;P1;durP2;ratioP2;P2;SDS_P1;SDS_P2;PMS_P1;PMS_P2;Temp;Humidity;BMP_temperature;BMP_pressure;BME280_temperature;BME280_humidity;BME280_pressure;Samples;Min_cycle;Max_cycle;Signal;HPM_P1;HPM_P2
2021/12/13 00:00:15;;;;;;;44.38;29.80;;;;;;;8.98;100.00;102374.38;5054119;28;20047;-81
2021/12/13 00:02:46;;;;;;;37.63;29.02;;;;;;;9.21;100.00;102418.78;5071674;28;20406;-79
2021/12/13 00:05:17;;;;;;;45.97;30.33;;;;;;;9.20;100.00;102413.50;5072030;28;20413;-81
2021/12/13 00:07:51;;;;;;;38.00;30.17;;;;;;;9.20;100.00;102408.19;5076983;28;20036;-80
2021/12/13 00:10:19;;;;;;;40.88;31.42;;;;;;;9.08;100.00;102399.69;5077650;28;20066;-79
2021/12/13 00:12:49;;;;;;;41.88;30.77;;;;;;;9.18;100.00;102412.72;5092332;28;20020;-83
2021/12/13 00:15:26;;;;;;;35.72;29.75;;;;;;;9.18;100.00;102416.22;5092291;28;20028;-81
2021/12/13 00:17:53;;;;;;;43.33;28.48;;;;;;;8.89;100.00;102361.41;5091942;28;20032;-80
2021/12/13 00:20:27;;;;;;;34.70;28.23;;;;;;;8.90;100.00;102367.59;5092653;28;20788;-81
2021/12/13 00:22:56;;;;;;;39.63;29.58;;;;;;;9.10;100.00;102397.00;5092082;28;20027;-82
2021/12/13 00:25:26;;;;;;;37.47;28.63;;;;;;;9.14;100.00;102408.41;5092232;28;20539;-82
2021/12/13 00:28:04;;;;;;;37.28;27.80;;;;;;;9.07;100.00;102405.06;5088251;28;20471;-81
2021/12/13 00:30:38;;;;;;;37.90;26.35;;;;;;;9.13;100.00;102407.53;5081434;28;20028;-80
2021/12/13 00:33:14;;;;;;;35.03;26.90;;;;;;;9.08;100.00;102402.34;5091956;28;20032;-81
2021/12/13 00:35:47;;;;;;;38.05;26.83;;;;;;;9.14;100.00;102409.25;5091608;28;20046;-81
2021/12/13 00:38:13;;;;;;;39.78;27.25;;;;;;;9.09;100.00;102406.78;5091715;28;20034;-81
2021/12/13 00:40:43;;;;;;;41.40;27.92;;;;;;;9.12;100.00;102412.88;5092061;28;20028;-80
2021/12/13 00:43:11;;;;;;;;;;;;;;;9.23;100.00;102421.38;5093276;28;20375;-81
2021/12/13 00:45:40;;;;;;;34.45;25.63;;;;;;;8.96;100.00;102394.78;5095595;28;19912;-79
2021/12/13 00:48:07;;;;;;;40.08;26.58;;;;;;;9.01;100.00;102407.94;5095366;28;20039;-80
2021/12/13 00:50:36;;;;;;;33.95;26.30;;;;;;;9.15;100.00;102429.59;5094942;28;20073;-81
2021/12/13 00:53:03;;;;;;;41.28;28.23;;;;;;;8.81;100.00;102376.69;5095151;28;20031;-81
2021/12/13 00:55:31;;;;;;;39.50;26.77;;;;;;;9.04;100.00;102421.09;5095214;28;20027;-81
2021/12/13 00:58:13;;;;;;;40.67;27.55;;;;;;;9.03;100.00;102425.53;5094955;28;20027;-82
2021/12/13 01:00:47;;;;;;;40.05;25.85;;;;;;;9.12;100.00;102426.16;5094933;28;20020;-79
2021/12/13 01:03:20;;;;;;;39.13;27.02;;;;;;;8.95;100.00;102414.28;5095583;28;20028;-80
2021/12/13 01:06:10;;;;;;;41.08;27.20;;;;;;;9.03;100.00;102433.50;5093729;28;20055;-79
2021/12/13 01:09:20;;;;;;;37.05;26.75;;;;;;;9.04;100.00;102437.03;5093068;28;20091;-81
2021/12/13 01:11:56;;;;;;;41.63;29.08;;;;;;;9.00;100.00;102435.34;5094927;28;20483;-80
2021/12/13 01:14:29;;;;;;;37.72;26.63;;;;;;;9.01;100.00;102443.28;5095240;28;20032;-81
2021/12/13 01:17:06;;;;;;;40.22;27.70;;;;;;;8.98;100.00;102435.41;5095244;28;20110;-80
2021/12/13 01:19:53;;;;;;;42.05;27.55;;;;;;;8.96;100.00;102441.69;5103808;28;20489;-80
2021/12/13 01:25:37;;;;;;;40.75;27.67;;;;;;;8.94;100.00;102431.13;5095278;28;20039;-82
2021/12/13 01:28:20;;;;;;;38.85;26.58;;;;;;;8.78;100.00;102412.16;5094966;28;20043;-81
2021/12/13 01:31:00;;;;;;;42.50;28.38;;;;;;;8.92;100.00;102434.75;5094244;28;20473;-80
2021/12/13 01:33:28;;;;;;;42.60;28.20;;;;;;;8.95;100.00;102442.63;5093984;28;20114;-81
2021/12/13 01:35:58;;;;;;;41.20;27.88;;;;;;;8.93;100.00;102452.41;5094060;28;20446;-81
2021/12/13 01:38:46;;;;;;;40.63;27.60;;;;;;;8.95;100.00;102455.88;5093332;28;20039;-81
2021/12/13 01:41:18;;;;;;;47.67;28.88;;;;;;;8.81;100.00;102435.94;5093241;28;20436;-82
2021/12/13 01:43:48;;;;;;;45.50;29.23;;;;;;;8.92;100.00;102459.50;5093485;28;20036;-79
2021/12/13 01:46:15;;;;;;;41.25;28.13;;;;;;;8.92;100.00;102459.50;5093748;28;20059;-80
2021/12/13 01:48:44;;;;;;;42.75;28.85;;;;;;;8.91;100.00;102459.53;5092616;28;20032;-81
2021/12/13 01:51:13;;;;;;;44.35;28.98;;;;;;;8.75;100.00;102436.13;5094026;28;20051;-80
2021/12/13 01:53:49;;;;;;;45.88;30.05;;;;;;;8.91;100.00;102470.13;5082714;28;20046;-81
2021/12/13 01:56:38;;;;;;;45.05;30.52;;;;;;;8.85;100.00;102460.56;5092757;28;20119;-81
2021/12/13 01:59:40;;;;;;;43.08;29.63;;;;;;;8.91;100.00;102459.53;5078829;28;20107;-81
2021/12/13 02:02:30;;;;;;;43.38;30.50;;;;;;;8.89;100.00;102464.91;5092923;28;20042;-81
2021/12/13 02:05:11;;;;;;;44.83;30.42;;;;;;;8.89;100.00;102462.25;5091708;28;20081;-81
2021/12/13 02:07:48;;;;;;;43.42;29.38;;;;;;;8.90;100.00;102468.41;5091947;28;20040;-81
2021/12/13 02:10:41;;;;;;;44.60;31.10;;;;;;;8.92;100.00;102478.06;5093129;28;20133;-80
2021/12/13 02:13:22;;;;;;;46.38;30.88;;;;;;;8.86;100.00;102465.84;5088028;28;20047;-82
2021/12/13 02:18:40;;;;;;;50.90;31.25;;;;;;;8.88;100.00;102465.78;5093764;28;20035;-80
2021/12/13 02:21:18;;;;;;;45.75;29.98;;;;;;;8.87;100.00;102464.91;5091553;28;20084;-80
2021/12/13 02:23:47;;;;;;;45.90;30.60;;;;;;;8.78;100.00;102438.69;5092426;28;20052;-80
2021/12/13 02:26:14;;;;;;;47.42;32.30;;;;;;;8.85;100.00;102445.56;5093799;28;20027;-81
2021/12/13 02:28:42;;;;;;;46.50;31.75;;;;;;;8.69;100.00;102432.78;5093712;28;20407;-80
2021/12/13 02:31:19;;;;;;;43.10;31.23;;;;;;;8.84;100.00;102448.25;5093746;28;20032;-80
2021/12/13 02:33:51;;;;;;;44.45;31.77;;;;;;;8.80;100.00;102450.13;5093162;28;20039;-81
2021/12/13 02:36:25;;;;;;;47.75;30.88;;;;;;;8.71;100.00;102438.91;5075903;28;22138;-81
2021/12/13 02:38:55;;;;;;;47.20;33.45;;;;;;;8.79;100.00;102466.06;5091874;28;20463;-80
2021/12/13 02:41:26;;;;;;;45.75;31.83;;;;;;;8.78;100.00;102464.34;5084214;28;20044;-80
2021/12/13 02:43:56;;;;;;;47.55;31.30;;;;;;;8.79;100.00;102461.63;5073148;28;20025;-81
2021/12/13 02:46:22;;;;;;;49.35;31.80;;;;;;;8.70;100.00;102445.97;5091410;28;20098;-81
2021/12/13 02:48:56;;;;;;;47.80;31.02;;;;;;;8.76;100.00;102459.06;5093226;28;20107;-80
2021/12/13 02:51:45;;;;;;;49.15;32.70;;;;;;;8.80;100.00;102465.16;5093335;28;20039;-83
2021/12/13 02:54:25;;;;;;;48.00;31.30;;;;;;;8.78;100.00;102467.00;5097766;28;20149;-81
2021/12/13 02:56:58;;;;;;;47.25;31.27;;;;;;;8.56;100.00;102438.44;5078271;28;20024;-80
2021/12/13 02:59:30;;;;;;;45.47;31.17;;;;;;;8.75;100.00;102465.28;5093322;28;20404;-80
2021/12/13 03:02:01;;;;;;;43.63;30.40;;;;;;;8.76;100.00;102468.81;5072901;28;20035;-82
2021/12/13 03:04:28;;;;;;;42.25;30.65;;;;;;;8.66;100.00;102449.66;5072906;28;20434;-80
2021/12/13 03:07:10;;;;;;;44.58;30.42;;;;;;;8.75;100.00;102459.13;5083595;28;20052;-81
2021/12/13 03:09:39;;;;;;;45.25;30.48;;;;;;;8.71;100.00;102460.13;5092990;28;20036;-82
2021/12/13 03:12:09;;;;;;;50.92;32.28;;;;;;;8.72;100.00;102465.38;5092973;28;20023;-82
2021/12/13 03:14:41;;;;;;;44.40;31.10;;;;;;;8.73;100.00;102461.81;5092437;28;20063;-80
2021/12/13 03:17:08;;;;;;;46.60;30.42;;;;;;;8.73;100.00;102463.59;5091328;28;20024;-81
2021/12/13 03:19:39;;;;;;;50.25;31.70;;;;;;;8.72;100.00;102462.72;5092687;28;20051;-82
2021/12/13 03:22:39;;;;;;;45.33;30.05;;;;;;;8.79;100.00;102468.72;5092790;28;20107;-80
2021/12/13 03:25:12;;;;;;;48.38;30.60;;;;;;;8.73;100.00;102466.25;5092994;28;20472;-81
2021/12/13 03:28:06;;;;;;;46.58;29.63;;;;;;;8.74;100.00;102462.69;5092230;28;20120;-80
2021/12/13 03:30:38;;;;;;;49.13;30.98;;;;;;;8.52;100.00;102425.31;5092658;28;20024;-80
2021/12/13 03:33:10;;;;;;;48.20;31.45;;;;;;;8.67;100.00;102462.00;5092601;28;20483;-80
2021/12/13 03:35:44;;;;;;;44.60;30.92;;;;;;;8.67;100.00;102463.78;5092578;28;20035;-80
2021/12/13 03:38:16;;;;;;;47.38;31.05;;;;;;;8.61;100.00;102465.69;5091788;28;20421;-80
2021/12/13 03:40:42;;;;;;;51.83;29.95;;;;;;;8.64;100.00;102467.38;5092685;28;20121;-80
2021/12/13 03:43:15;;;;;;;48.47;32.33;;;;;;;8.61;100.00;102467.47;5090888;28;20509;-80
2021/12/13 03:45:47;;;;;;;46.80;30.25;;;;;;;8.58;100.00;102463.13;5092565;28;20086;-80
2021/12/13 03:48:15;;;;;;;48.20;30.17;;;;;;;8.50;100.00;102446.59;5091422;28;20039;-80
2021/12/13 03:50:47;;;;;;;46.88;31.02;;;;;;;8.53;100.00;102450.91;5092181;28;20034;-79
2021/12/13 03:53:17;;;;;;;47.28;31.40;;;;;;;8.53;100.00;102454.44;5092103;28;20475;-81
2021/12/13 03:55:45;;;;;;;;;;;;;;;8.70;100.00;102474.28;5092821;28;20020;-80
2021/12/13 03:58:14;;;;;;;45.72;30.13;;;;;;;8.63;100.00;102478.91;5092343;28;19919;-82
2021/12/13 04:00:44;;;;;;;46.65;30.23;;;;;;;8.58;100.00;102468.44;5090381;28;20020;-80
2021/12/13 04:03:14;;;;;;;41.40;28.50;;;;;;;8.47;100.00;102448.44;5092342;28;20020;-80
2021/12/13 04:05:40;;;;;;;48.10;31.25;;;;;;;8.51;100.00;102452.75;5092412;28;20081;-79
2021/12/13 04:08:09;;;;;;;49.10;30.88;;;;;;;8.38;100.00;102434.56;5091922;28;20445;-80
2021/12/13 04:10:44;;;;;;;46.10;29.47;;;;;;;8.49;100.00;102451.91;5062897;28;20020;-80
2021/12/13 04:13:14;;;;;;;50.85;30.08;;;;;;;8.52;100.00;102454.47;5092112;28;20535;-81
2021/12/13 04:16:03;;;;;;;;;;;;;;;8.72;100.00;102465.38;5092753;28;20020;-81
2021/12/13 04:21:25;;;;;;;43.30;28.85;;;;;;;8.59;100.00;102470.19;5095900;28;20043;-80
2021/12/13 04:24:03;;;;;;;43.88;27.63;;;;;;;8.56;100.00;102469.38;5095972;28;20042;-80
2021/12/13 04:26:29;;;;;;;43.25;28.42;;;;;;;8.57;100.00;102479.97;5095971;28;20016;-80
2021/12/13 04:28:59;;;;;;;47.25;28.67;;;;;;;8.48;100.00;102458.16;5095333;28;20016;-80
2021/12/13 04:31:31;;;;;;;;;;;;;;;8.66;100.00;102481.47;5096424;28;20035;-80
2021/12/13 04:34:00;;;;;;;46.35;29.17;;;;;;;8.57;100.00;102484.41;5095791;28;20004;-80
2021/12/13 04:36:35;;;;;;;42.20;28.48;;;;;;;8.56;100.00;102480.88;5095624;28;20060;-82
2021/12/13 04:39:13;;;;;;;45.60;28.83;;;;;;;8.55;100.00;102479.13;5095743;28;20032;-81
2021/12/13 04:41:55;;;;;;;42.03;29.13;;;;;;;8.51;100.00;102466.00;5095453;28;20028;-80
2021/12/13 04:44:51;;;;;;;40.42;27.15;;;;;;;8.57;100.00;102469.34;5095442;28;20028;-80
2021/12/13 04:47:22;;;;;;;42.40;26.80;;;;;;;8.53;100.00;102470.38;5094883;28;20016;-80
2021/12/13 04:49:58;;;;;;;42.78;27.65;;;;;;;8.41;100.00;102466.28;5095663;28;20054;-78
2021/12/13 04:52:23;;;;;;;39.35;27.10;;;;;;;8.47;100.00;102465.25;5094142;28;20042;-80
2021/12/13 04:54:54;;;;;;;38.95;26.98;;;;;;;8.44;100.00;102452.03;5095482;28;20451;-80
2021/12/13 04:57:21;;;;;;;40.25;25.65;;;;;;;8.39;99.97;102451.31;5084529;28;20035;-82
2021/12/13 04:59:53;;;;;;;42.10;26.20;;;;;;;8.46;100.00;102452.00;5095564;28;20059;-80
2021/12/13 05:02:19;;;;;;;37.50;25.92;;;;;;;8.40;100.00;102445.09;5095434;28;20030;-80
2021/12/13 05:04:44;;;;;;;38.50;25.15;;;;;;;8.43;100.00;102445.00;5095329;28;20047;-81
2021/12/13 05:07:10;;;;;;;37.22;25.90;;;;;;;8.42;100.00;102445.94;5095313;28;20040;-79
2021/12/13 05:09:36;;;;;;;39.97;26.20;;;;;;;8.35;100.00;102442.56;5095096;28;20040;-81
2021/12/13 05:12:01;;;;;;;39.60;26.33;;;;;;;8.50;100.00;102466.91;5095288;28;20027;-81
2021/12/13 05:14:37;;;;;;;40.15;25.73;;;;;;;8.49;99.97;102476.66;5095335;28;20162;-79
2021/12/13 05:17:23;;;;;;;39.72;25.10;;;;;;;8.51;100.00;102474.84;5094780;28;20057;-79
2021/12/13 05:19:57;;;;;;;36.75;25.70;;;;;;;8.46;99.90;102476.72;5077113;28;20047;-80
2021/12/13 05:22:23;;;;;;;37.83;24.40;;;;;;;8.50;100.00;102483.72;5094469;28;20032;-81
2021/12/13 05:24:56;;;;;;;37.15;24.85;;;;;;;8.52;99.68;102478.34;5075642;28;20470;-80
2021/12/13 05:27:31;;;;;;;37.33;25.02;;;;;;;8.19;99.74;102422.69;5094507;28;20023;-80
2021/12/13 05:30:06;;;;;;;31.15;22.75;;;;;;;8.50;99.62;102481.06;5094049;28;20032;-81
2021/12/13 05:32:35;;;;;;;35.80;24.90;;;;;;;8.50;99.38;102482.81;5094431;28;20672;-79
2021/12/13 05:35:13;;;;;;;36.60;24.08;;;;;;;8.34;99.79;102447.88;5094785;28;20073;-80
2021/12/13 05:37:45;;;;;;;37.72;24.58;;;;;;;8.48;99.65;102476.72;5094085;28;20032;-80
2021/12/13 05:40:36;;;;;;;37.38;23.88;;;;;;;8.50;99.25;102483.72;5094604;28;20024;-81
2021/12/13 05:43:15;;;;;;;36.05;24.52;;;;;;;8.44;99.66;102469.72;5031918;28;20041;-80
2021/12/13 05:45:48;;;;;;;34.65;22.75;;;;;;;8.37;99.39;102464.56;5015620;28;20037;-81
2021/12/13 05:48:16;;;;;;;29.58;21.73;;;;;;;8.48;99.05;102484.66;5031578;28;20413;-83
2021/12/13 05:50:45;;;;;;;33.65;23.08;;;;;;;8.49;99.03;102486.38;5032365;28;20587;-80
2021/12/13 05:53:43;;;;;;;29.90;21.88;;;;;;;8.51;99.27;102481.94;5031826;28;20037;-81
2021/12/13 05:56:14;;;;;;;34.92;22.13;;;;;;;8.39;99.13;102464.56;5031062;28;20044;-80
2021/12/13 05:59:05;;;;;;;33.15;22.63;;;;;;;8.46;99.31;102481.19;5031108;28;20022;-81
2021/12/13 06:01:56;;;;;;;28.42;20.80;;;;;;;8.23;98.82;102436.72;4973286;28;20574;-80
2021/12/13 06:04:24;;;;;;;32.88;21.35;;;;;;;8.35;99.20;102471.72;4973286;28;20121;-81
2021/12/13 06:06:55;;;;;;;32.65;20.38;;;;;;;8.45;98.85;102487.41;4976198;28;20516;-80
2021/12/13 06:09:48;;;;;;;31.13;20.67;;;;;;;8.45;98.80;102484.75;4976120;28;20149;-81
2021/12/13 06:12:27;;;;;;;33.83;21.02;;;;;;;8.42;98.98;102488.34;4973152;28;20038;-79
2021/12/13 06:14:54;;;;;;;31.02;20.40;;;;;;;8.41;98.76;102490.13;4972492;28;20063;-80
2021/12/13 06:17:29;;;;;;;26.88;19.65;;;;;;;8.34;98.73;102477.91;4984413;28;20410;-81
2021/12/13 06:20:11;;;;;;;28.00;19.75;;;;;;;8.40;98.89;102491.03;5000639;28;20053;-80
2021/12/13 06:22:37;;;;;;;28.20;19.65;;;;;;;8.40;98.84;102498.97;5031416;28;20476;-81
2021/12/13 06:25:13;;;;;;;28.85;19.00;;;;;;;8.41;98.67;102494.53;5031283;28;20045;-79
2021/12/13 06:27:46;;;;;;;28.90;19.58;;;;;;;8.25;98.40;102467.56;5030995;28;20037;-80
2021/12/13 06:30:24;;;;;;;26.98;19.08;;;;;;;8.43;98.58;102506.00;5013993;28;20053;-80
2021/12/13 06:32:59;;;;;;;27.17;18.80;;;;;;;8.41;98.12;102505.16;5014691;28;20411;-82
2021/12/13 06:35:36;;;;;;;25.88;18.25;;;;;;;8.41;98.64;102502.50;5031493;28;20076;-82
2021/12/13 06:38:23;;;;;;;26.13;18.13;;;;;;;8.41;98.66;102505.16;5043503;28;20479;-80
2021/12/13 06:41:02;;;;;;;27.55;18.88;;;;;;;8.31;98.42;102488.59;5088079;28;20046;-80
2021/12/13 06:43:43;;;;;;;28.73;18.37;;;;;;;8.41;98.38;102502.50;5092916;28;20093;-80
2021/12/13 06:46:29;;;;;;;28.08;18.83;;;;;;;8.38;98.16;102511.44;5093515;28;20028;-80
2021/12/13 06:49:10;;;;;;;28.60;19.17;;;;;;;8.32;98.39;102497.41;5093555;28;20028;-80
2021/12/13 06:51:39;;;;;;;24.58;17.15;;;;;;;8.35;98.01;102508.84;5077820;28;20040;-80
2021/12/13 06:54:09;;;;;;;26.67;18.00;;;;;;;8.28;98.14;102504.59;5093275;28;20016;-81
2021/12/13 06:56:36;;;;;;;22.75;16.67;;;;;;;8.37;97.96;102517.59;5093249;28;20111;-81
2021/12/13 06:59:05;;;;;;;23.08;17.48;;;;;;;8.28;98.00;102503.72;5092097;28;20046;-80
2021/12/13 07:01:34;;;;;;;25.15;17.70;;;;;;;8.35;98.03;102516.78;5090235;28;20116;-80
2021/12/13 07:04:05;;;;;;;25.60;17.55;;;;;;;8.19;97.74;102496.88;5093033;28;20056;-80
2021/12/13 07:06:31;;;;;;;26.80;17.35;;;;;;;8.08;97.70;102481.25;5092633;28;20027;-81
2021/12/13 07:09:11;;;;;;;23.58;16.90;;;;;;;8.29;97.96;102508.97;5092505;28;20399;-81
2021/12/13 07:11:50;;;;;;;23.83;17.33;;;;;;;8.32;97.73;102522.13;5092238;28;20063;-80
2021/12/13 07:14:19;;;;;;;23.20;16.08;;;;;;;8.28;98.02;102515.19;5089004;28;20505;-82
2021/12/13 07:16:50;;;;;;;25.27;17.65;;;;;;;8.37;97.67;102525.53;5073680;28;20063;-80
2021/12/13 07:19:22;;;;;;;26.92;17.42;;;;;;;8.16;97.78;102494.31;5092323;28;20069;-80
2021/12/13 07:21:54;;;;;;;23.23;16.55;;;;;;;8.37;98.06;102525.53;5092599;28;20052;-81
2021/12/13 07:24:30;;;;;;;22.63;16.85;;;;;;;8.37;98.16;102532.63;5092868;28;20027;-81
2021/12/13 07:26:57;;;;;;;23.80;16.45;;;;;;;8.31;97.96;102528.38;5074106;28;20423;-80
2021/12/13 07:29:36;;;;;;;26.20;16.95;;;;;;;8.36;97.80;102537.06;5092805;28;20024;-81
2021/12/13 07:32:04;;;;;;;25.13;17.17;;;;;;;8.39;97.68;102541.47;5091677;28;20028;-81
2021/12/13 07:34:30;;;;;;;23.45;17.25;;;;;;;8.37;97.82;102541.44;5092509;28;20024;-80
2021/12/13 07:36:59;;;;;;;23.63;17.58;;;;;;;8.36;97.66;102546.81;5092247;28;20115;-80
2021/12/13 07:39:29;;;;;;;21.23;16.67;;;;;;;8.36;97.49;102547.69;5092335;28;20032;-80
2021/12/13 07:41:59;;;;;;;25.42;17.35;;;;;;;8.28;97.83;102533.75;5092358;28;20028;-80
2021/12/13 07:44:47;;;;;;;24.77;17.15;;;;;;;8.39;97.89;102544.13;5092396;28;20024;-80
2021/12/13 07:47:23;;;;;;;23.50;17.00;;;;;;;8.34;97.75;102541.53;5077499;28;20043;-80
2021/12/13 07:49:57;;;;;;;26.00;17.00;;;;;;;8.26;97.50;102524.09;5088227;28;20042;-80
2021/12/13 07:52:24;;;;;;;22.70;16.63;;;;;;;8.38;97.85;102552.91;5088451;28;20032;-80
2021/12/13 07:54:50;;;;;;;24.77;17.77;;;;;;;8.37;97.61;102554.72;5095871;28;20020;-80
2021/12/13 07:57:24;;;;;;;21.05;16.58;;;;;;;8.38;97.76;102555.56;5077546;28;20482;-80
2021/12/13 07:59:51;;;;;;;24.92;17.90;;;;;;;8.38;97.28;102561.81;5091963;28;20050;-80
2021/12/13 08:02:33;;;;;;;22.15;16.90;;;;;;;8.33;97.67;102557.50;5089281;28;20020;-80
2021/12/13 08:05:14;;;;;;;22.83;17.52;;;;;;;8.29;97.47;102540.78;5086708;28;20064;-81
2021/12/13 08:07:47;;;;;;;27.33;17.15;;;;;;;8.40;97.13;102559.97;5084896;28;20024;-81
2021/12/13 08:10:38;;;;;;;22.45;16.35;;;;;;;8.39;97.67;102555.59;5066575;28;20108;-80
2021/12/13 08:13:11;;;;;;;24.13;16.70;;;;;;;8.38;97.93;102553.84;5043104;28;20037;-79
2021/12/13 08:15:39;;;;;;;21.60;16.65;;;;;;;8.38;97.71;102556.50;5064003;28;20028;-80
2021/12/13 08:18:31;;;;;;;19.83;15.95;;;;;;;8.25;97.26;102533.81;5045805;28;20033;-79
2021/12/13 08:21:00;;;;;;;19.58;15.70;;;;;;;8.42;97.41;102565.25;5068361;28;20094;-80
2021/12/13 08:23:38;;;;;;;22.23;16.27;;;;;;;8.40;97.36;102572.34;5064709;28;20104;-80
2021/12/13 08:26:09;;;;;;;21.63;16.50;;;;;;;8.35;97.57;102566.25;5061844;28;20059;-81
2021/12/13 08:28:34;;;;;;;22.73;16.17;;;;;;;8.40;97.58;102565.25;5074232;28;20016;-81
2021/12/13 08:31:02;;;;;;;21.02;16.55;;;;;;;8.41;97.18;102571.44;5067374;28;20035;-80
2021/12/13 08:33:49;;;;;;;24.58;16.92;;;;;;;8.06;97.16;102500.75;5064960;28;20049;-80
2021/12/13 08:36:31;;;;;;;20.90;16.30;;;;;;;8.29;97.20;102542.56;5060236;28;20380;-81
2021/12/13 08:39:05;;;;;;;23.35;17.38;;;;;;;8.39;97.59;102549.41;5081830;28;20467;-80
2021/12/13 08:41:55;;;;;;;24.23;18.08;;;;;;;8.41;97.32;102559.06;5071256;28;20115;-82
2021/12/13 08:44:32;;;;;;;23.92;16.92;;;;;;;8.36;97.15;102549.47;4987948;28;20500;-80
2021/12/13 08:47:00;;;;;;;23.50;17.83;;;;;;;8.39;97.10;102568.84;4993925;28;20046;-80
2021/12/13 08:49:34;;;;;;;22.95;17.63;;;;;;;8.39;97.26;102565.31;4975611;28;20049;-80
2021/12/13 08:52:11;;;;;;;22.20;17.10;;;;;;;8.40;97.13;102562.63;4993671;28;20449;-78
2021/12/13 08:54:42;;;;;;;23.27;16.95;;;;;;;8.38;97.13;102569.75;4977231;28;20038;-79
2021/12/13 08:57:29;;;;;;;22.73;17.98;;;;;;;8.30;97.27;102555.78;4993320;28;20110;-80
2021/12/13 09:00:01;;;;;;;25.70;17.42;;;;;;;8.28;97.03;102554.94;4993573;28;20037;-80
2021/12/13 09:02:34;;;;;;;22.50;16.25;;;;;;;8.38;97.12;102572.41;4977190;28;20413;-81
2021/12/13 09:05:23;;;;;;;22.90;16.38;;;;;;;8.38;97.04;102568.81;4991988;28;20034;-80
2021/12/13 09:08:13;;;;;;;24.15;16.73;;;;;;;8.27;96.69;102549.72;4994692;28;20509;-80
2021/12/13 09:10:50;;;;;;;25.15;16.77;;;;;;;8.33;96.73;102563.66;5013258;28;20037;-80
2021/12/13 09:13:32;;;;;;;23.70;16.13;;;;;;;8.29;96.63;102558.47;5012933;28;20385;-81
2021/12/13 09:15:59;;;;;;;20.60;16.23;;;;;;;8.39;96.75;102581.22;5012593;28;20050;-80
2021/12/13 09:18:24;;;;;;;23.30;16.60;;;;;;;8.28;96.77;102559.38;5012730;28;20409;-80
2021/12/13 09:20:53;;;;;;;21.60;17.08;;;;;;;8.40;96.64;102580.31;5034490;28;20040;-81
2021/12/13 09:23:21;;;;;;;20.17;16.25;;;;;;;8.22;96.88;102548.94;5094982;28;20077;-81
2021/12/13 09:25:50;;;;;;;21.67;16.17;;;;;;;8.41;96.74;102580.28;5094621;28;20024;-80
2021/12/13 09:28:21;;;;;;;24.48;17.13;;;;;;;8.43;96.31;102595.28;5074447;28;20056;-80
2021/12/13 09:30:54;;;;;;;21.50;15.75;;;;;;;8.37;96.32;102578.56;5056653;28;20127;-80
2021/12/13 09:33:23;;;;;;;20.67;16.10;;;;;;;8.44;96.53;102597.00;5074515;28;20029;-81
2021/12/13 09:35:59;;;;;;;19.08;16.05;;;;;;;8.44;96.04;102589.91;5074815;28;20040;-80
2021/12/13 09:39:05;;;;;;;20.77;16.00;;;;;;;8.34;96.12;102591.91;5092079;28;20498;-81
2021/12/13 09:41:59;;;;;;;22.13;15.45;;;;;;;8.45;96.10;102612.88;5074470;28;20020;-80
2021/12/13 09:44:32;;;;;;;17.98;14.85;;;;;;;8.46;96.13;102627.88;5056144;28;20123;-81
2021/12/13 09:47:17;;;;;;;19.17;15.05;;;;;;;8.50;96.45;102628.66;5056649;28;20031;-81
2021/12/13 09:49:45;;;;;;;21.35;15.20;;;;;;;8.48;95.85;102627.84;5074211;28;20060;-79
2021/12/13 09:52:31;;;;;;;19.80;14.27;;;;;;;8.50;96.05;102641.91;5074258;28;20426;-80
2021/12/13 09:55:14;;;;;;;17.42;14.10;;;;;;;8.51;95.91;102651.63;5074037;28;20056;-82
2021/12/13 09:57:50;;;;;;;16.73;14.38;;;;;;;8.44;95.92;102642.94;5074534;28;20107;-80
2021/12/13 10:00:18;;;;;;;15.93;14.10;;;;;;;8.49;95.36;102646.34;5094122;28;20024;-81
2021/12/13 10:02:48;;;;;;;15.88;13.05;;;;;;;8.33;95.49;102629.06;5093779;28;20027;-81
2021/12/13 10:05:20;;;;;;;16.27;13.90;;;;;;;8.34;95.54;102626.38;5094256;28;20032;-80
2021/12/13 10:07:51;;;;;;;17.58;13.32;;;;;;;8.48;95.21;102654.38;5093634;28;20028;-80
2021/12/13 10:10:30;;;;;;;15.07;12.60;;;;;;;8.47;95.50;102645.53;5093672;28;20044;-81
2021/12/13 10:13:04;;;;;;;15.57;12.50;;;;;;;8.50;95.50;102641.91;5093940;28;20088;-80
2021/12/13 10:15:44;;;;;;;14.63;12.77;;;;;;;8.48;95.51;102641.97;5093573;28;20035;-81
2021/12/13 10:18:14;;;;;;;15.00;11.90;;;;;;;8.40;95.08;102628.91;5093908;28;20031;-81
2021/12/13 10:21:06;;;;;;;14.05;10.90;;;;;;;8.49;95.04;102635.75;5092014;28;20028;-80
2021/12/13 10:23:35;;;;;;;13.60;11.65;;;;;;;8.52;94.75;102640.09;5051893;28;20105;-80
2021/12/13 10:26:05;;;;;;;12.30;10.80;;;;;;;8.40;94.77;102622.72;5073532;28;20501;-82
2021/12/13 10:28:36;;;;;;;13.65;11.40;;;;;;;8.53;94.57;102639.19;5076793;28;20020;-82
2021/12/13 10:31:10;;;;;;;13.85;10.50;;;;;;;8.55;94.83;102632.94;5055448;28;20028;-81
2021/12/13 10:33:38;;;;;;;15.10;10.40;;;;;;;8.51;94.32;102630.41;5073157;28;20032;-80
2021/12/13 10:36:04;;;;;;;14.52;10.20;;;;;;;8.56;94.63;102637.34;5073470;28;20028;-80
2021/12/13 10:38:35;;;;;;;13.55;10.50;;;;;;;8.32;93.97;102596.38;5055246;28;20024;-81
2021/12/13 10:41:08;;;;;;;13.73;10.35;;;;;;;8.59;93.86;102633.75;5092355;28;20040;-79
2021/12/13 10:43:39;;;;;;;11.50;10.10;;;;;;;8.57;94.25;102636.44;5093221;28;20026;-81
2021/12/13 10:46:11;;;;;;;12.07;9.98;;;;;;;8.46;93.96;102608.44;5093383;28;20026;-82
2021/12/13 10:48:45;;;;;;;12.25;10.05;;;;;;;8.45;94.03;102614.66;5074990;28;20185;-81
2021/12/13 10:51:36;;;;;;;11.35;9.80;;;;;;;8.38;93.71;102590.97;5074782;28;20043;-79
2021/12/13 10:54:13;;;;;;;10.27;9.23;;;;;;;8.53;93.50;102618.88;5093211;28;20047;-80
2021/12/13 10:56:53;;;;;;;12.68;8.93;;;;;;;8.53;94.00;102621.53;5074589;28;20044;-79
2021/12/13 10:59:22;;;;;;;10.52;9.35;;;;;;;8.54;93.69;102617.94;5092849;28;20016;-81
2021/12/13 11:01:51;;;;;;;10.70;9.57;;;;;;;8.49;93.51;102606.56;5091331;28;20020;-82
2021/12/13 11:04:28;;;;;;;12.77;9.63;;;;;;;8.57;93.65;102625.81;5093023;28;20115;-81
2021/12/13 11:06:54;;;;;;;12.65;8.98;;;;;;;8.62;93.09;102618.63;5092968;28;20043;-81
2021/12/13 11:09:23;;;;;;;9.82;8.68;;;;;;;8.61;93.10;102616.00;5092761;28;20071;-80
2021/12/13 11:11:54;;;;;;;11.93;9.02;;;;;;;8.63;92.99;102616.84;5074366;28;20036;-81
2021/12/13 11:14:21;;;;;;;12.40;9.38;;;;;;;8.54;93.13;102593.22;5092790;28;20055;-81
2021/12/13 11:16:58;;;;;;;10.80;9.70;;;;;;;8.64;93.11;102619.44;5092959;28;20089;-82
2021/12/13 11:19:30;;;;;;;10.70;9.23;;;;;;;8.66;92.54;102605.28;5092655;28;20039;-80
2021/12/13 11:22:05;;;;;;;11.45;9.07;;;;;;;8.66;92.69;102599.97;5092416;28;20024;-81
2021/12/13 11:24:35;;;;;;;9.82;8.82;;;;;;;8.52;92.92;102576.47;5092744;28;20055;-81
2021/12/13 11:27:05;;;;;;;14.30;8.52;;;;;;;8.64;92.09;102594.69;5092097;28;20028;-83
2021/12/13 11:29:32;;;;;;;;;;;;;;;8.73;93.20;102609.50;5092949;28;20032;-80
2021/12/13 11:32:38;;;;;;;10.65;9.05;;;;;;;8.69;92.67;102600.75;5092423;28;19908;-80
2021/12/13 11:35:06;;;;;;;11.77;9.40;;;;;;;8.68;92.24;102611.38;5074847;28;20032;-81
2021/12/13 11:38:03;;;;;;;9.88;8.90;;;;;;;8.69;92.68;102606.06;5074476;28;20119;-81
2021/12/13 11:41:10;;;;;;;13.02;8.55;;;;;;;8.58;92.20;102585.13;5092620;28;20054;-81
2021/12/13 11:43:50;;;;;;;10.32;8.73;;;;;;;8.72;91.73;102605.09;5091859;28;20032;-81
2021/12/13 11:46:57;;;;;;;9.43;8.43;;;;;;;8.76;91.91;102604.09;5092635;28;20504;-82
2021/12/13 11:49:48;;;;;;;11.13;8.27;;;;;;;8.74;91.81;102598.84;4993860;28;20041;-81
2021/12/13 11:53:03;;;;;;;9.68;8.65;;;;;;;8.72;91.45;102605.09;5010156;28;20554;-80
2021/12/13 11:56:02;;;;;;;9.95;8.32;;;;;;;8.72;91.39;102605.09;5010371;28;20021;-81
2021/12/13 11:58:42;;;;;;;10.15;8.15;;;;;;;8.64;91.55;102589.38;5009387;28;20053;-80
2021/12/13 12:01:26;;;;;;;;;;;;;;;8.77;92.10;102605.88;5026698;28;20040;-80